Terminal Aerodrome Forecast
Issued by NWS Louisville, KY

Home | Current Version | Previous Version | Text Only | Print | Product List | Glossary On
Versions: 1 2 3 4 5 6 7 8 9 10 11 12 13 14 15 16 17 18 19
269
FTUS43 KLMK 272320
TAFSDF
TAF
KSDF 272320Z 2800/2906 19010KT 6SM BR VCTS BKN040CB
     FM280200 22005KT 6SM SHRA BR OVC040
     FM280800 26004KT P6SM OVC022
     FM280900 29007KT 5SM BR BKN011
     FM281600 32007KT P6SM BKN015
     FM282100 35006KT P6SM BKN025=

USA.gov is the U.S. government's official web portal to all federal, state and local government web resources and services.